Gateway, Arkansas
Current Conditions -  °F | °C
As of 5:57 AM on Monday 24 Nov 2014 (Local Time) from KROG Reporting Station
Clear Clear  
Wind Chill: 30°   Ceiling: Unl
Heat Index: 37°   Visibility: 10mi
Dew Point: 32°   Wind: 10mph
Humidity: 82%   Direction: 270°W
Pressure: 29.77"   Gusts: NA
Location:  36.49°N, 93.93°W
Report Text: KROG 241157Z 27009KT 10SM CLR 03/00 A2977 RMK AO2 SLP080 60002 70093 T00280000 10044 20028 53031
Loading
Personal Weather Stations






























Interactive Weather Map New forecast layout! Learn more

10-Day Weather Forecast

Advertisements
Track Severe Weather on mobile